sensor_id;sensor_type;location;lat;lon;timestamp;P1;durP1;ratioP1;P2;durP2;ratioP2
18425;SDS011;9340;48.756;9.226;2022-10-16T00:01:23;6.00;;;2.20;;
18425;SDS011;9340;48.756;9.226;2022-10-16T00:03:51;6.43;;;2.03;;
18425;SDS011;9340;48.756;9.226;2022-10-16T00:06:19;5.55;;;2.53;;
18425;SDS011;9340;48.756;9.226;2022-10-16T00:08:47;4.88;;;2.67;;
18425;SDS011;9340;48.756;9.226;2022-10-16T00:11:15;2.40;;;2.17;;
18425;SDS011;9340;48.756;9.226;2022-10-16T00:13:45;4.47;;;2.23;;
18425;SDS011;9340;48.756;9.226;2022-10-16T00:16:13;2.40;;;1.70;;
18425;SDS011;9340;48.756;9.226;2022-10-16T00:18:40;3.30;;;2.23;;
18425;SDS011;9340;48.756;9.226;2022-10-16T00:21:08;4.80;;;2.00;;
18425;SDS011;9340;48.756;9.226;2022-10-16T00:23:37;6.17;;;2.83;;
18425;SDS011;9340;48.756;9.226;2022-10-16T00:26:05;4.00;;;2.70;;
18425;SDS011;9340;48.756;9.226;2022-10-16T00:28:33;5.03;;;2.30;;
18425;SDS011;9340;48.756;9.226;2022-10-16T00:31:03;3.13;;;1.97;;
18425;SDS011;9340;48.756;9.226;2022-10-16T00:33:30;2.50;;;2.03;;
18425;SDS011;9340;48.756;9.226;2022-10-16T00:35:57;3.50;;;2.20;;
18425;SDS011;9340;48.756;9.226;2022-10-16T00:38:24;2.53;;;1.87;;
18425;SDS011;9340;48.756;9.226;2022-10-16T00:40:51;3.10;;;1.90;;
18425;SDS011;9340;48.756;9.226;2022-10-16T00:43:32;3.53;;;2.47;;
18425;SDS011;9340;48.756;9.226;2022-10-16T00:46:01;2.57;;;2.10;;
18425;SDS011;9340;48.756;9.226;2022-10-16T00:48:30;4.10;;;2.10;;
18425;SDS011;9340;48.756;9.226;2022-10-16T00:50:57;2.20;;;2.00;;
18425;SDS011;9340;48.756;9.226;2022-10-16T00:53:25;4.57;;;2.33;;
18425;SDS011;9340;48.756;9.226;2022-10-16T00:55:52;7.90;;;2.47;;
18425;SDS011;9340;48.756;9.226;2022-10-16T00:58:19;6.60;;;1.87;;
18425;SDS011;9340;48.756;9.226;2022-10-16T01:00:46;2.63;;;2.37;;
18425;SDS011;9340;48.756;9.226;2022-10-16T01:03:26;7.93;;;2.70;;
18425;SDS011;9340;48.756;9.226;2022-10-16T01:06:00;2.90;;;1.93;;
18425;SDS011;9340;48.756;9.226;2022-10-16T01:08:37;6.67;;;2.80;;
18425;SDS011;9340;48.756;9.226;2022-10-16T01:11:12;4.27;;;2.60;;
18425;SDS011;9340;48.756;9.226;2022-10-16T01:13:48;4.27;;;2.40;;
18425;SDS011;9340;48.756;9.226;2022-10-16T01:16:20;4.13;;;2.30;;
18425;SDS011;9340;48.756;9.226;2022-10-16T01:18:56;4.20;;;2.10;;
18425;SDS011;9340;48.756;9.226;2022-10-16T01:21:28;5.53;;;2.40;;
18425;SDS011;9340;48.756;9.226;2022-10-16T01:24:00;5.93;;;2.30;;
18425;SDS011;9340;48.756;9.226;2022-10-16T01:26:36;2.40;;;2.03;;
18425;SDS011;9340;48.756;9.226;2022-10-16T01:29:18;3.37;;;2.27;;
18425;SDS011;9340;48.756;9.226;2022-10-16T01:31:50;6.07;;;2.03;;
18425;SDS011;9340;48.756;9.226;2022-10-16T01:34:24;5.10;;;2.67;;
18425;SDS011;9340;48.756;9.226;2022-10-16T01:36:59;6.67;;;3.07;;
18425;SDS011;9340;48.756;9.226;2022-10-16T01:39:31;3.87;;;2.17;;
18425;SDS011;9340;48.756;9.226;2022-10-16T01:42:02;3.10;;;2.23;;
18425;SDS011;9340;48.756;9.226;2022-10-16T01:44:35;11.50;;;2.80;;
18425;SDS011;9340;48.756;9.226;2022-10-16T01:47:03;3.17;;;2.50;;
18425;SDS011;9340;48.756;9.226;2022-10-16T01:49:32;3.53;;;2.27;;
18425;SDS011;9340;48.756;9.226;2022-10-16T01:52:02;4.80;;;2.53;;
18425;SDS011;9340;48.756;9.226;2022-10-16T01:54:32;4.17;;;2.07;;
18425;SDS011;9340;48.756;9.226;2022-10-16T01:57:01;4.70;;;2.10;;
18425;SDS011;9340;48.756;9.226;2022-10-16T01:59:31;4.87;;;2.30;;
18425;SDS011;9340;48.756;9.226;2022-10-16T02:02:01;2.83;;;2.23;;
18425;SDS011;9340;48.756;9.226;2022-10-16T02:04:33;8.03;;;2.90;;
18425;SDS011;9340;48.756;9.226;2022-10-16T02:07:02;3.63;;;2.40;;
18425;SDS011;9340;48.756;9.226;2022-10-16T02:09:29;5.80;;;2.50;;
18425;SDS011;9340;48.756;9.226;2022-10-16T02:11:59;5.17;;;2.47;;
18425;SDS011;9340;48.756;9.226;2022-10-16T02:14:29;5.77;;;2.50;;
18425;SDS011;9340;48.756;9.226;2022-10-16T02:16:56;6.07;;;2.60;;
18425;SDS011;9340;48.756;9.226;2022-10-16T02:19:24;2.73;;;2.40;;
18425;SDS011;9340;48.756;9.226;2022-10-16T02:21:51;4.87;;;2.17;;
18425;SDS011;9340;48.756;9.226;2022-10-16T02:24:22;3.60;;;2.17;;
18425;SDS011;9340;48.756;9.226;2022-10-16T02:26:57;3.23;;;2.50;;
18425;SDS011;9340;48.756;9.226;2022-10-16T02:29:29;2.13;;;1.93;;
18425;SDS011;9340;48.756;9.226;2022-10-16T02:31:59;11.53;;;3.03;;
18425;SDS011;9340;48.756;9.226;2022-10-16T02:34:30;4.90;;;1.97;;
18425;SDS011;9340;48.756;9.226;2022-10-16T02:36:59;3.10;;;2.27;;
18425;SDS011;9340;48.756;9.226;2022-10-16T02:39:29;3.80;;;2.20;;
18425;SDS011;9340;48.756;9.226;2022-10-16T02:41:56;3.53;;;2.50;;
18425;SDS011;9340;48.756;9.226;2022-10-16T02:44:23;3.30;;;2.90;;
18425;SDS011;9340;48.756;9.226;2022-10-16T02:46:49;4.07;;;2.40;;
18425;SDS011;9340;48.756;9.226;2022-10-16T02:49:16;3.93;;;2.03;;
18425;SDS011;9340;48.756;9.226;2022-10-16T02:51:45;2.73;;;2.20;;
18425;SDS011;9340;48.756;9.226;2022-10-16T02:54:11;7.63;;;3.03;;
18425;SDS011;9340;48.756;9.226;2022-10-16T02:56:38;10.20;;;2.63;;
18425;SDS011;9340;48.756;9.226;2022-10-16T02:59:05;3.77;;;2.10;;
18425;SDS011;9340;48.756;9.226;2022-10-16T03:01:31;3.53;;;2.47;;
18425;SDS011;9340;48.756;9.226;2022-10-16T03:03:58;2.73;;;2.40;;
18425;SDS011;9340;48.756;9.226;2022-10-16T03:06:25;5.90;;;2.43;;
18425;SDS011;9340;48.756;9.226;2022-10-16T03:08:53;7.93;;;2.50;;
18425;SDS011;9340;48.756;9.226;2022-10-16T03:11:20;2.57;;;2.30;;
18425;SDS011;9340;48.756;9.226;2022-10-16T03:13:46;4.57;;;2.53;;
18425;SDS011;9340;48.756;9.226;2022-10-16T03:16:13;3.77;;;2.23;;
18425;SDS011;9340;48.756;9.226;2022-10-16T03:18:39;4.40;;;2.50;;
18425;SDS011;9340;48.756;9.226;2022-10-16T03:21:06;2.40;;;1.90;;
18425;SDS011;9340;48.756;9.226;2022-10-16T03:23:33;2.17;;;1.97;;
18425;SDS011;9340;48.756;9.226;2022-10-16T03:26:01;4.37;;;2.43;;
18425;SDS011;9340;48.756;9.226;2022-10-16T03:28:28;5.33;;;2.20;;
18425;SDS011;9340;48.756;9.226;2022-10-16T03:30:55;2.57;;;2.13;;
18425;SDS011;9340;48.756;9.226;2022-10-16T03:33:21;2.53;;;2.33;;
18425;SDS011;9340;48.756;9.226;2022-10-16T03:35:51;6.03;;;2.40;;
18425;SDS011;9340;48.756;9.226;2022-10-16T03:38:19;5.13;;;2.93;;
18425;SDS011;9340;48.756;9.226;2022-10-16T03:40:46;3.30;;;3.00;;
18425;SDS011;9340;48.756;9.226;2022-10-16T03:43:14;5.03;;;2.90;;
18425;SDS011;9340;48.756;9.226;2022-10-16T03:45:41;5.63;;;2.97;;
18425;SDS011;9340;48.756;9.226;2022-10-16T03:48:08;4.13;;;2.53;;
18425;SDS011;9340;48.756;9.226;2022-10-16T03:50:35;3.57;;;3.10;;
18425;SDS011;9340;48.756;9.226;2022-10-16T03:53:02;3.67;;;2.73;;
18425;SDS011;9340;48.756;9.226;2022-10-16T03:55:29;6.90;;;2.40;;
18425;SDS011;9340;48.756;9.226;2022-10-16T03:57:55;4.83;;;2.00;;
18425;SDS011;9340;48.756;9.226;2022-10-16T04:00:23;3.90;;;2.57;;
18425;SDS011;9340;48.756;9.226;2022-10-16T04:02:50;4.60;;;2.50;;
18425;SDS011;9340;48.756;9.226;2022-10-16T04:05:17;3.80;;;2.40;;
18425;SDS011;9340;48.756;9.226;2022-10-16T04:07:43;3.07;;;2.27;;
18425;SDS011;9340;48.756;9.226;2022-10-16T04:10:10;3.17;;;2.50;;
18425;SDS011;9340;48.756;9.226;2022-10-16T04:12:37;5.47;;;2.83;;
18425;SDS011;9340;48.756;9.226;2022-10-16T04:15:04;4.10;;;2.50;;
18425;SDS011;9340;48.756;9.226;2022-10-16T04:17:32;6.90;;;2.80;;
18425;SDS011;9340;48.756;9.226;2022-10-16T04:19:59;3.23;;;2.17;;
18425;SDS011;9340;48.756;9.226;2022-10-16T04:22:25;5.30;;;2.50;;
18425;SDS011;9340;48.756;9.226;2022-10-16T04:24:52;6.23;;;2.43;;
18425;SDS011;9340;48.756;9.226;2022-10-16T04:27:19;2.87;;;2.10;;
18425;SDS011;9340;48.756;9.226;2022-10-16T04:29:45;3.53;;;2.50;;
18425;SDS011;9340;48.756;9.226;2022-10-16T04:32:12;3.47;;;2.70;;
18425;SDS011;9340;48.756;9.226;2022-10-16T04:34:40;2.93;;;2.30;;
18425;SDS011;9340;48.756;9.226;2022-10-16T04:37:07;4.37;;;2.70;;
18425;SDS011;9340;48.756;9.226;2022-10-16T04:39:34;3.93;;;2.20;;
18425;SDS011;9340;48.756;9.226;2022-10-16T04:42:00;3.87;;;2.17;;
18425;SDS011;9340;48.756;9.226;2022-10-16T04:44:27;4.47;;;2.40;;
18425;SDS011;9340;48.756;9.226;2022-10-16T04:46:54;6.10;;;2.60;;
18425;SDS011;9340;48.756;9.226;2022-10-16T04:49:21;3.10;;;2.43;;
18425;SDS011;9340;48.756;9.226;2022-10-16T04:51:49;4.67;;;2.83;;
18425;SDS011;9340;48.756;9.226;2022-10-16T04:54:15;6.90;;;2.60;;
18425;SDS011;9340;48.756;9.226;2022-10-16T04:56:42;7.73;;;2.60;;
18425;SDS011;9340;48.756;9.226;2022-10-16T04:59:12;4.20;;;2.37;;
18425;SDS011;9340;48.756;9.226;2022-10-16T05:01:39;3.27;;;2.53;;
18425;SDS011;9340;48.756;9.226;2022-10-16T05:04:05;6.00;;;2.20;;
18425;SDS011;9340;48.756;9.226;2022-10-16T05:06:32;5.70;;;2.43;;
18425;SDS011;9340;48.756;9.226;2022-10-16T05:09:00;3.27;;;2.37;;
18425;SDS011;9340;48.756;9.226;2022-10-16T05:11:27;2.50;;;2.30;;
18425;SDS011;9340;48.756;9.226;2022-10-16T05:13:54;3.67;;;2.23;;
18425;SDS011;9340;48.756;9.226;2022-10-16T05:16:20;4.50;;;2.43;;
18425;SDS011;9340;48.756;9.226;2022-10-16T05:18:47;2.97;;;2.77;;
18425;SDS011;9340;48.756;9.226;2022-10-16T05:21:14;5.10;;;2.53;;
18425;SDS011;9340;48.756;9.226;2022-10-16T05:23:40;4.33;;;2.93;;
18425;SDS011;9340;48.756;9.226;2022-10-16T05:26:08;3.50;;;2.47;;
18425;SDS011;9340;48.756;9.226;2022-10-16T05:28:35;3.27;;;2.53;;
18425;SDS011;9340;48.756;9.226;2022-10-16T05:31:04;3.17;;;2.07;;
18425;SDS011;9340;48.756;9.226;2022-10-16T05:33:31;4.43;;;2.43;;
18425;SDS011;9340;48.756;9.226;2022-10-16T05:36:00;3.43;;;2.40;;
18425;SDS011;9340;48.756;9.226;2022-10-16T05:38:28;4.03;;;2.23;;
18425;SDS011;9340;48.756;9.226;2022-10-16T05:40:54;2.63;;;2.10;;
18425;SDS011;9340;48.756;9.226;2022-10-16T05:43:24;3.77;;;1.93;;
18425;SDS011;9340;48.756;9.226;2022-10-16T05:45:54;4.53;;;2.60;;
18425;SDS011;9340;48.756;9.226;2022-10-16T05:48:21;2.93;;;2.43;;
18425;SDS011;9340;48.756;9.226;2022-10-16T05:50:48;3.63;;;2.23;;
18425;SDS011;9340;48.756;9.226;2022-10-16T05:53:21;3.00;;;2.30;;
18425;SDS011;9340;48.756;9.226;2022-10-16T05:55:51;3.83;;;2.40;;
18425;SDS011;9340;48.756;9.226;2022-10-16T05:58:18;2.80;;;2.60;;
18425;SDS011;9340;48.756;9.226;2022-10-16T06:00:52;6.57;;;2.50;;
18425;SDS011;9340;48.756;9.226;2022-10-16T06:03:20;4.37;;;2.43;;
18425;SDS011;9340;48.756;9.226;2022-10-16T06:05:46;5.27;;;2.70;;
18425;SDS011;9340;48.756;9.226;2022-10-16T06:08:13;2.80;;;2.50;;
18425;SDS011;9340;48.756;9.226;2022-10-16T06:10:40;2.43;;;2.23;;
18425;SDS011;9340;48.756;9.226;2022-10-16T06:13:07;4.00;;;2.60;;
18425;SDS011;9340;48.756;9.226;2022-10-16T06:15:33;2.90;;;2.63;;
18425;SDS011;9340;48.756;9.226;2022-10-16T06:18:01;7.67;;;2.50;;
18425;SDS011;9340;48.756;9.226;2022-10-16T06:20:28;3.90;;;2.27;;
18425;SDS011;9340;48.756;9.226;2022-10-16T06:22:55;3.23;;;2.40;;
18425;SDS011;9340;48.756;9.226;2022-10-16T06:25:22;8.33;;;2.70;;
18425;SDS011;9340;48.756;9.226;2022-10-16T06:27:49;2.63;;;2.40;;
18425;SDS011;9340;48.756;9.226;2022-10-16T06:30:16;6.10;;;2.30;;
18425;SDS011;9340;48.756;9.226;2022-10-16T06:32:42;4.80;;;2.50;;
18425;SDS011;9340;48.756;9.226;2022-10-16T06:35:10;6.00;;;2.80;;
18425;SDS011;9340;48.756;9.226;2022-10-16T06:37:37;5.50;;;2.37;;
18425;SDS011;9340;48.756;9.226;2022-10-16T06:40:04;5.17;;;2.00;;
18425;SDS011;9340;48.756;9.226;2022-10-16T06:42:31;9.63;;;2.80;;
18425;SDS011;9340;48.756;9.226;2022-10-16T06:44:58;4.17;;;2.13;;
18425;SDS011;9340;48.756;9.226;2022-10-16T06:47:25;4.27;;;2.10;;
18425;SDS011;9340;48.756;9.226;2022-10-16T06:49:51;4.43;;;2.13;;
18425;SDS011;9340;48.756;9.226;2022-10-16T06:52:19;4.47;;;2.37;;
18425;SDS011;9340;48.756;9.226;2022-10-16T06:54:46;6.13;;;2.22;;
18425;SDS011;9340;48.756;9.226;2022-10-16T06:57:13;4.97;;;2.00;;
18425;SDS011;9340;48.756;9.226;2022-10-16T06:59:40;3.73;;;2.40;;
18425;SDS011;9340;48.756;9.226;2022-10-16T07:02:07;4.28;;;2.40;;
18425;SDS011;9340;48.756;9.226;2022-10-16T07:04:35;3.80;;;2.25;;
18425;SDS011;9340;48.756;9.226;2022-10-16T07:07:02;5.93;;;2.53;;
18425;SDS011;9340;48.756;9.226;2022-10-16T07:09:30;2.72;;;2.40;;
18425;SDS011;9340;48.756;9.226;2022-10-16T07:11:57;3.28;;;1.95;;
18425;SDS011;9340;48.756;9.226;2022-10-16T07:14:23;2.92;;;1.90;;
18425;SDS011;9340;48.756;9.226;2022-10-16T07:16:50;3.43;;;2.43;;
18425;SDS011;9340;48.756;9.226;2022-10-16T07:19:17;5.70;;;2.60;;
18425;SDS011;9340;48.756;9.226;2022-10-16T07:21:44;6.85;;;3.65;;
18425;SDS011;9340;48.756;9.226;2022-10-16T07:24:11;4.18;;;2.10;;
18425;SDS011;9340;48.756;9.226;2022-10-16T07:26:42;5.25;;;2.55;;
18425;SDS011;9340;48.756;9.226;2022-10-16T07:29:11;6.15;;;2.28;;
18425;SDS011;9340;48.756;9.226;2022-10-16T07:31:40;7.90;;;3.00;;
18425;SDS011;9340;48.756;9.226;2022-10-16T07:34:10;9.95;;;5.05;;
18425;SDS011;9340;48.756;9.226;2022-10-16T07:36:37;10.73;;;4.15;;
18425;SDS011;9340;48.756;9.226;2022-10-16T07:39:04;5.55;;;3.60;;
18425;SDS011;9340;48.756;9.226;2022-10-16T07:41:31;3.38;;;2.83;;
18425;SDS011;9340;48.756;9.226;2022-10-16T07:44:03;3.03;;;2.72;;
18425;SDS011;9340;48.756;9.226;2022-10-16T07:46:30;4.07;;;2.35;;
18425;SDS011;9340;48.756;9.226;2022-10-16T07:48:58;2.88;;;2.60;;
18425;SDS011;9340;48.756;9.226;2022-10-16T07:51:25;3.30;;;3.00;;
18425;SDS011;9340;48.756;9.226;2022-10-16T07:53:52;4.40;;;2.72;;
18425;SDS011;9340;48.756;9.226;2022-10-16T07:56:19;5.18;;;3.35;;
18425;SDS011;9340;48.756;9.226;2022-10-16T07:58:47;4.07;;;3.00;;
18425;SDS011;9340;48.756;9.226;2022-10-16T08:01:16;6.57;;;3.45;;
18425;SDS011;9340;48.756;9.226;2022-10-16T08:03:44;5.90;;;3.67;;
18425;SDS011;9340;48.756;9.226;2022-10-16T08:06:12;3.30;;;2.78;;
18425;SDS011;9340;48.756;9.226;2022-10-16T08:08:39;3.22;;;2.92;;
18425;SDS011;9340;48.756;9.226;2022-10-16T08:11:06;3.22;;;2.92;;
18425;SDS011;9340;48.756;9.226;2022-10-16T08:13:33;3.90;;;2.58;;
18425;SDS011;9340;48.756;9.226;2022-10-16T08:16:00;5.57;;;3.08;;
18425;SDS011;9340;48.756;9.226;2022-10-16T08:18:30;5.22;;;3.20;;
18425;SDS011;9340;48.756;9.226;2022-10-16T08:20:57;3.60;;;2.50;;
18425;SDS011;9340;48.756;9.226;2022-10-16T08:23:25;4.28;;;2.65;;
18425;SDS011;9340;48.756;9.226;2022-10-16T08:25:53;6.18;;;2.58;;
18425;SDS011;9340;48.756;9.226;2022-10-16T08:28:21;1.98;;;1.80;;
18425;SDS011;9340;48.756;9.226;2022-10-16T08:30:48;3.25;;;2.17;;
18425;SDS011;9340;48.756;9.226;2022-10-16T08:33:15;4.18;;;1.90;;
18425;SDS011;9340;48.756;9.226;2022-10-16T08:35:49;6.88;;;2.05;;
18425;SDS011;9340;48.756;9.226;2022-10-16T08:38:17;2.03;;;1.77;;
18425;SDS011;9340;48.756;9.226;2022-10-16T08:40:44;1.80;;;1.52;;
18425;SDS011;9340;48.756;9.226;2022-10-16T08:43:16;3.15;;;1.83;;
18425;SDS011;9340;48.756;9.226;2022-10-16T08:46:03;3.25;;;1.70;;
18425;SDS011;9340;48.756;9.226;2022-10-16T08:48:42;3.15;;;2.15;;
18425;SDS011;9340;48.756;9.226;2022-10-16T08:51:15;2.38;;;2.00;;
18425;SDS011;9340;48.756;9.226;2022-10-16T08:53:46;3.03;;;1.80;;
18425;SDS011;9340;48.756;9.226;2022-10-16T08:56:18;3.95;;;2.03;;
18425;SDS011;9340;48.756;9.226;2022-10-16T08:58:44;2.28;;;2.08;;
18425;SDS011;9340;48.756;9.226;2022-10-16T09:01:13;1.80;;;1.70;;
18425;SDS011;9340;48.756;9.226;2022-10-16T09:03:45;10.18;;;2.40;;
18425;SDS011;9340;48.756;9.226;2022-10-16T09:06:42;2.88;;;1.80;;
18425;SDS011;9340;48.756;9.226;2022-10-16T09:12:14;4.07;;;2.00;;
18425;SDS011;9340;48.756;9.226;2022-10-16T09:14:48;2.58;;;1.92;;
18425;SDS011;9340;48.756;9.226;2022-10-16T09:20:27;4.13;;;2.00;;
18425;SDS011;9340;48.756;9.226;2022-10-16T09:23:07;5.22;;;1.77;;
18425;SDS011;9340;48.756;9.226;2022-10-16T09:25:42;2.97;;;2.22;;
18425;SDS011;9340;48.756;9.226;2022-10-16T09:28:10;3.70;;;2.22;;
18425;SDS011;9340;48.756;9.226;2022-10-16T09:30:37;2.30;;;2.10;;
18425;SDS011;9340;48.756;9.226;2022-10-16T09:33:05;2.13;;;1.92;;
18425;SDS011;9340;48.756;9.226;2022-10-16T09:35:35;2.28;;;1.92;;
18425;SDS011;9340;48.756;9.226;2022-10-16T09:38:06;2.30;;;1.80;;
18425;SDS011;9340;48.756;9.226;2022-10-16T09:40:35;4.22;;;1.90;;
18425;SDS011;9340;48.756;9.226;2022-10-16T09:43:07;1.92;;;1.60;;
18425;SDS011;9340;48.756;9.226;2022-10-16T09:45:52;3.63;;;1.70;;
18425;SDS011;9340;48.756;9.226;2022-10-16T09:48:21;1.77;;;1.67;;
18425;SDS011;9340;48.756;9.226;2022-10-16T09:50:55;1.70;;;1.60;;
18425;SDS011;9340;48.756;9.226;2022-10-16T09:53:24;5.00;;;1.70;;
18425;SDS011;9340;48.756;9.226;2022-10-16T09:56:02;1.60;;;1.50;;
18425;SDS011;9340;48.756;9.226;2022-10-16T09:58:30;1.98;;;1.83;;
18425;SDS011;9340;48.756;9.226;2022-10-16T10:00:58;3.75;;;1.63;;
18425;SDS011;9340;48.756;9.226;2022-10-16T10:03:30;4.20;;;1.77;;
18425;SDS011;9340;48.756;9.226;2022-10-16T10:06:03;2.03;;;1.83;;
18425;SDS011;9340;48.756;9.226;2022-10-16T10:08:51;1.92;;;1.70;;
18425;SDS011;9340;48.756;9.226;2022-10-16T10:14:05;3.10;;;2.20;;
18425;SDS011;9340;48.756;9.226;2022-10-16T10:16:35;3.50;;;1.83;;
18425;SDS011;9340;48.756;9.226;2022-10-16T10:19:01;5.28;;;1.80;;
18425;SDS011;9340;48.756;9.226;2022-10-16T10:21:28;1.67;;;1.58;;
18425;SDS011;9340;48.756;9.226;2022-10-16T10:23:56;1.70;;;1.60;;
18425;SDS011;9340;48.756;9.226;2022-10-16T10:26:23;2.40;;;1.52;;
18425;SDS011;9340;48.756;9.226;2022-10-16T10:28:55;3.60;;;2.00;;
18425;SDS011;9340;48.756;9.226;2022-10-16T10:31:32;7.15;;;5.90;;
18425;SDS011;9340;48.756;9.226;2022-10-16T10:34:07;7.55;;;3.50;;
18425;SDS011;9340;48.756;9.226;2022-10-16T10:36:46;2.15;;;1.90;;
18425;SDS011;9340;48.756;9.226;2022-10-16T10:39:22;4.85;;;3.75;;
18425;SDS011;9340;48.756;9.226;2022-10-16T10:42:00;4.10;;;2.15;;
18425;SDS011;9340;48.756;9.226;2022-10-16T10:44:52;1.90;;;1.80;;
18425;SDS011;9340;48.756;9.226;2022-10-16T10:47:28;2.38;;;1.60;;
18425;SDS011;9340;48.756;9.226;2022-10-16T10:50:04;2.38;;;2.03;;
18425;SDS011;9340;48.756;9.226;2022-10-16T10:52:41;2.58;;;1.60;;
18425;SDS011;9340;48.756;9.226;2022-10-16T10:55:21;4.00;;;1.95;;
18425;SDS011;9340;48.756;9.226;2022-10-16T11:00:56;5.88;;;2.08;;
18425;SDS011;9340;48.756;9.226;2022-10-16T11:03:31;2.88;;;2.15;;
18425;SDS011;9340;48.756;9.226;2022-10-16T11:06:06;5.82;;;2.50;;
18425;SDS011;9340;48.756;9.226;2022-10-16T11:08:37;2.00;;;1.88;;
18425;SDS011;9340;48.756;9.226;2022-10-16T11:11:11;2.45;;;2.00;;
18425;SDS011;9340;48.756;9.226;2022-10-16T11:13:44;3.70;;;2.15;;
18425;SDS011;9340;48.756;9.226;2022-10-16T11:16:18;1.70;;;1.60;;
18425;SDS011;9340;48.756;9.226;2022-10-16T11:18:49;2.15;;;1.70;;
18425;SDS011;9340;48.756;9.226;2022-10-16T11:21:22;3.70;;;1.77;;
18425;SDS011;9340;48.756;9.226;2022-10-16T11:23:51;5.00;;;2.05;;
18425;SDS011;9340;48.756;9.226;2022-10-16T11:26:24;2.67;;;1.88;;
18425;SDS011;9340;48.756;9.226;2022-10-16T11:28:54;1.70;;;1.60;;
18425;SDS011;9340;48.756;9.226;2022-10-16T11:31:25;1.90;;;1.67;;
18425;SDS011;9340;48.756;9.226;2022-10-16T11:34:00;2.78;;;1.50;;
18425;SDS011;9340;48.756;9.226;2022-10-16T11:36:32;2.50;;;1.90;;
18425;SDS011;9340;48.756;9.226;2022-10-16T11:39:03;3.05;;;1.70;;
18425;SDS011;9340;48.756;9.226;2022-10-16T11:41:41;3.33;;;2.20;;
18425;SDS011;9340;48.756;9.226;2022-10-16T11:44:18;2.60;;;1.60;;
18425;SDS011;9340;48.756;9.226;2022-10-16T11:46:57;4.05;;;1.83;;
18425;SDS011;9340;48.756;9.226;2022-10-16T11:49:33;2.00;;;1.63;;
18425;SDS011;9340;48.756;9.226;2022-10-16T11:52:03;3.22;;;1.60;;
18425;SDS011;9340;48.756;9.226;2022-10-16T11:54:35;2.70;;;1.67;;
18425;SDS011;9340;48.756;9.226;2022-10-16T11:57:13;4.43;;;1.60;;
18425;SDS011;9340;48.756;9.226;2022-10-16T11:59:45;2.78;;;1.70;;
18425;SDS011;9340;48.756;9.226;2022-10-16T12:02:33;3.20;;;1.55;;
18425;SDS011;9340;48.756;9.226;2022-10-16T12:05:16;3.28;;;1.63;;
18425;SDS011;9340;48.756;9.226;2022-10-16T12:07:49;1.48;;;1.38;;
18425;SDS011;9340;48.756;9.226;2022-10-16T12:10:25;3.53;;;1.75;;
18425;SDS011;9340;48.756;9.226;2022-10-16T12:12:54;1.55;;;1.45;;
18425;SDS011;9340;48.756;9.226;2022-10-16T12:15:23;2.40;;;1.50;;
18425;SDS011;9340;48.756;9.226;2022-10-16T12:17:52;1.92;;;1.73;;
18425;SDS011;9340;48.756;9.226;2022-10-16T12:20:21;2.75;;;1.73;;
18425;SDS011;9340;48.756;9.226;2022-10-16T12:22:51;1.90;;;1.70;;
18425;SDS011;9340;48.756;9.226;2022-10-16T12:25:21;2.30;;;1.70;;
18425;SDS011;9340;48.756;9.226;2022-10-16T12:27:55;5.85;;;1.67;;
18425;SDS011;9340;48.756;9.226;2022-10-16T12:30:24;2.65;;;1.88;;
18425;SDS011;9340;48.756;9.226;2022-10-16T12:32:53;2.38;;;1.58;;
18425;SDS011;9340;48.756;9.226;2022-10-16T12:35:21;1.70;;;1.60;;
18425;SDS011;9340;48.756;9.226;2022-10-16T12:37:49;4.30;;;2.20;;
18425;SDS011;9340;48.756;9.226;2022-10-16T12:40:23;3.40;;;2.00;;
18425;SDS011;9340;48.756;9.226;2022-10-16T12:42:52;2.63;;;1.60;;
18425;SDS011;9340;48.756;9.226;2022-10-16T12:45:25;2.33;;;1.88;;
18425;SDS011;9340;48.756;9.226;2022-10-16T12:47:54;2.40;;;1.92;;
18425;SDS011;9340;48.756;9.226;2022-10-16T12:50:32;4.45;;;2.05;;
18425;SDS011;9340;48.756;9.226;2022-10-16T12:53:00;3.15;;;1.75;;
18425;SDS011;9340;48.756;9.226;2022-10-16T12:55:31;3.15;;;1.80;;
18425;SDS011;9340;48.756;9.226;2022-10-16T12:58:18;3.38;;;2.00;;
18425;SDS011;9340;48.756;9.226;2022-10-16T13:01:18;4.55;;;1.88;;
18425;SDS011;9340;48.756;9.226;2022-10-16T13:06:59;4.68;;;2.00;;
18425;SDS011;9340;48.756;9.226;2022-10-16T13:09:44;2.45;;;1.65;;
18425;SDS011;9340;48.756;9.226;2022-10-16T13:12:35;2.80;;;2.05;;
18425;SDS011;9340;48.756;9.226;2022-10-16T13:15:22;2.60;;;1.70;;
18425;SDS011;9340;48.756;9.226;2022-10-16T13:17:59;1.98;;;1.80;;
18425;SDS011;9340;48.756;9.226;2022-10-16T13:20:33;2.63;;;2.20;;
18425;SDS011;9340;48.756;9.226;2022-10-16T13:23:07;1.88;;;1.77;;
18425;SDS011;9340;48.756;9.226;2022-10-16T13:25:44;4.40;;;2.00;;
18425;SDS011;9340;48.756;9.226;2022-10-16T13:28:22;1.98;;;1.77;;
18425;SDS011;9340;48.756;9.226;2022-10-16T13:30:54;2.08;;;1.70;;
18425;SDS011;9340;48.756;9.226;2022-10-16T13:33:26;3.88;;;1.70;;
18425;SDS011;9340;48.756;9.226;2022-10-16T13:35:58;3.72;;;1.90;;
18425;SDS011;9340;48.756;9.226;2022-10-16T13:38:26;2.78;;;2.03;;
18425;SDS011;9340;48.756;9.226;2022-10-16T13:40:54;2.58;;;2.38;;
18425;SDS011;9340;48.756;9.226;2022-10-16T13:43:23;5.75;;;3.92;;
18425;SDS011;9340;48.756;9.226;2022-10-16T13:45:54;5.28;;;3.03;;
18425;SDS011;9340;48.756;9.226;2022-10-16T13:48:22;5.32;;;3.17;;
18425;SDS011;9340;48.756;9.226;2022-10-16T13:50:59;8.27;;;3.25;;
18425;SDS011;9340;48.756;9.226;2022-10-16T13:53:27;8.27;;;3.28;;
18425;SDS011;9340;48.756;9.226;2022-10-16T13:55:56;6.25;;;3.25;;
18425;SDS011;9340;48.756;9.226;2022-10-16T13:58:25;5.90;;;2.97;;
18425;SDS011;9340;48.756;9.226;2022-10-16T14:00:53;7.25;;;3.50;;
18425;SDS011;9340;48.756;9.226;2022-10-16T14:03:21;4.35;;;2.45;;
18425;SDS011;9340;48.756;9.226;2022-10-16T14:05:49;4.32;;;2.42;;
18425;SDS011;9340;48.756;9.226;2022-10-16T14:08:19;2.75;;;2.33;;
18425;SDS011;9340;48.756;9.226;2022-10-16T14:10:50;4.88;;;2.13;;
18425;SDS011;9340;48.756;9.226;2022-10-16T14:13:19;6.18;;;2.05;;
18425;SDS011;9340;48.756;9.226;2022-10-16T14:15:52;6.45;;;2.60;;
18425;SDS011;9340;48.756;9.226;2022-10-16T14:18:20;3.65;;;2.35;;
18425;SDS011;9340;48.756;9.226;2022-10-16T14:20:49;4.88;;;2.22;;
18425;SDS011;9340;48.756;9.226;2022-10-16T14:23:20;5.95;;;2.17;;
18425;SDS011;9340;48.756;9.226;2022-10-16T14:25:49;5.75;;;2.47;;
18425;SDS011;9340;48.756;9.226;2022-10-16T14:28:16;6.22;;;2.40;;
18425;SDS011;9340;48.756;9.226;2022-10-16T14:30:50;2.42;;;2.20;;
18425;SDS011;9340;48.756;9.226;2022-10-16T14:33:20;8.55;;;3.05;;
18425;SDS011;9340;48.756;9.226;2022-10-16T14:35:58;6.88;;;2.85;;
18425;SDS011;9340;48.756;9.226;2022-10-16T14:38:28;3.65;;;2.10;;
18425;SDS011;9340;48.756;9.226;2022-10-16T14:40:56;2.72;;;2.13;;
18425;SDS011;9340;48.756;9.226;2022-10-16T14:43:26;2.78;;;2.58;;
18425;SDS011;9340;48.756;9.226;2022-10-16T14:45:58;4.82;;;3.00;;
18425;SDS011;9340;48.756;9.226;2022-10-16T14:48:25;6.00;;;3.75;;
18425;SDS011;9340;48.756;9.226;2022-10-16T14:50:51;4.90;;;2.50;;
18425;SDS011;9340;48.756;9.226;2022-10-16T14:53:18;2.47;;;2.28;;
18425;SDS011;9340;48.756;9.226;2022-10-16T14:55:46;2.80;;;2.30;;
18425;SDS011;9340;48.756;9.226;2022-10-16T14:58:14;8.65;;;2.60;;
18425;SDS011;9340;48.756;9.226;2022-10-16T15:00:43;5.60;;;2.28;;
18425;SDS011;9340;48.756;9.226;2022-10-16T15:03:09;3.25;;;2.00;;
18425;SDS011;9340;48.756;9.226;2022-10-16T15:05:36;4.65;;;2.40;;
18425;SDS011;9340;48.756;9.226;2022-10-16T15:08:03;4.80;;;2.53;;
18425;SDS011;9340;48.756;9.226;2022-10-16T15:10:30;9.13;;;4.10;;
18425;SDS011;9340;48.756;9.226;2022-10-16T15:13:00;5.75;;;3.78;;
18425;SDS011;9340;48.756;9.226;2022-10-16T15:15:30;5.93;;;4.20;;
18425;SDS011;9340;48.756;9.226;2022-10-16T15:18:00;6.53;;;4.93;;
18425;SDS011;9340;48.756;9.226;2022-10-16T15:20:27;6.15;;;4.47;;
18425;SDS011;9340;48.756;9.226;2022-10-16T15:22:56;5.40;;;3.05;;
18425;SDS011;9340;48.756;9.226;2022-10-16T15:25:27;8.45;;;2.90;;
18425;SDS011;9340;48.756;9.226;2022-10-16T15:27:58;8.82;;;3.00;;
18425;SDS011;9340;48.756;9.226;2022-10-16T15:30:26;6.00;;;2.78;;
18425;SDS011;9340;48.756;9.226;2022-10-16T15:32:53;3.80;;;3.47;;